Terminal Aerodrome Forecast
Issued by NWS

Home | Current Version | Previous Version | Text Only | Print | Product List | Glossary Off
Versions: 1 2 3 4 5 6 7 8 9 10 11 12 13 14 15 16 17 18

000
FTUS43 KMPX 311740
TAFRNH
TAF
KRNH 311740Z 3118/0118 19012KT P6SM BKN018
     FM311830 20016G24KT P6SM SCT025
     FM010000 19007KT P6SM SCT250
     FM011000 18004KT 3SM BR OVC007
     FM011500 20006KT P6SM SCT250=

USA.gov is the U.S. government's official web portal to all federal, state and local government web resources and services.